createdAt,value
2018-02-03T00:01:45.388Z,20.00
2018-02-03T00:04:11.390Z,19.96
2018-02-03T00:06:37.337Z,19.97
2018-02-03T00:09:03.305Z,19.96
2018-02-03T00:11:29.258Z,19.95
2018-02-03T00:13:55.199Z,19.91
2018-02-03T00:16:21.132Z,19.93
2018-02-03T00:18:47.081Z,19.89
2018-02-03T00:21:13.041Z,19.95
2018-02-03T00:23:38.991Z,19.96
2018-02-03T00:26:04.941Z,19.89
2018-02-03T00:28:30.909Z,19.93
2018-02-03T00:30:56.858Z,19.93
2018-02-03T00:33:22.792Z,19.94
2018-02-03T00:35:48.921Z,19.92
2018-02-03T00:38:14.862Z,19.93
2018-02-03T00:40:40.805Z,19.89
2018-02-03T00:43:06.745Z,19.92
2018-02-03T00:45:32.704Z,19.95
2018-02-03T00:47:58.642Z,19.97
2018-02-03T00:50:24.592Z,19.96
2018-02-03T00:52:50.529Z,19.90
2018-02-03T00:55:16.589Z,19.86
2018-02-03T00:57:42.555Z,19.87
2018-02-03T01:00:08.564Z,19.88
2018-02-03T01:02:34.507Z,19.93
2018-02-03T01:05:00.458Z,19.94
2018-02-03T01:07:26.468Z,19.90
2018-02-03T01:09:52.403Z,19.81
2018-02-03T01:12:18.353Z,19.85
2018-02-03T01:14:44.288Z,19.81
2018-02-03T01:17:10.324Z,19.87
2018-02-03T01:19:36.301Z,19.90
2018-02-03T01:22:02.241Z,19.82
2018-02-03T01:24:28.209Z,19.84
2018-02-03T01:26:54.158Z,19.85
2018-02-03T01:29:20.129Z,19.79
2018-02-03T01:31:46.082Z,19.84
2018-02-03T01:34:12.041Z,19.90
2018-02-03T01:36:37.981Z,19.90
2018-02-03T01:39:03.946Z,19.87
2018-02-03T01:41:29.936Z,19.82
2018-02-03T01:43:55.905Z,19.83
2018-02-03T01:46:21.853Z,19.82
2018-02-03T01:48:47.802Z,19.80
2018-02-03T01:51:13.765Z,19.88
2018-02-03T01:53:39.721Z,19.85
2018-02-03T01:56:05.677Z,19.80
2018-02-03T01:58:31.621Z,19.79
2018-02-03T02:00:57.558Z,19.83
2018-02-03T02:03:23.502Z,19.79
2018-02-03T02:05:49.448Z,19.77
2018-02-03T02:08:15.431Z,19.79
2018-02-03T02:10:41.380Z,19.75
2018-02-03T02:13:07.342Z,19.72
2018-02-03T02:15:33.282Z,19.77
2018-02-03T02:17:59.239Z,19.73
2018-02-03T02:20:25.185Z,19.76
2018-02-03T02:22:51.173Z,19.79
2018-02-03T02:25:17.192Z,19.83
2018-02-03T02:27:43.120Z,19.80
2018-02-03T02:30:09.098Z,19.81
2018-02-03T02:32:35.041Z,19.84
2018-02-03T02:35:01.013Z,19.75
2018-02-03T02:37:26.981Z,19.76
2018-02-03T02:39:53.101Z,19.74
2018-02-03T02:42:19.054Z,19.79
2018-02-03T02:44:45.006Z,19.74
2018-02-03T02:47:10.946Z,19.79
2018-02-03T02:49:36.894Z,19.77
2018-02-03T02:52:02.853Z,19.75
2018-02-03T02:54:28.877Z,19.75
2018-02-03T02:56:54.820Z,19.74
2018-02-03T02:59:20.878Z,19.80
2018-02-03T03:01:46.819Z,19.78
2018-02-03T03:04:12.777Z,19.80
2018-02-03T03:06:38.725Z,19.70
2018-02-03T03:09:04.672Z,19.72
2018-02-03T03:11:30.641Z,19.77
2018-02-03T03:13:56.590Z,19.75
2018-02-03T03:16:22.554Z,19.71
2018-02-03T03:18:48.498Z,19.74
2018-02-03T03:21:14.458Z,19.77
2018-02-03T03:23:40.421Z,19.77
2018-02-03T03:26:06.393Z,19.71
2018-02-03T03:28:32.364Z,19.69
2018-02-03T03:30:58.308Z,19.72
2018-02-03T03:33:24.246Z,19.72
2018-02-03T03:35:50.201Z,19.68
2018-02-03T03:38:16.157Z,19.75
2018-02-03T03:40:42.101Z,19.69
2018-02-03T03:43:08.042Z,19.63
2018-02-03T03:45:33.993Z,19.64
2018-02-03T03:47:59.941Z,19.66
2018-02-03T03:50:25.899Z,19.70
2018-02-03T03:52:51.840Z,19.69
2018-02-03T03:55:17.789Z,19.66
2018-02-03T03:57:43.737Z,19.68
2018-02-03T04:00:09.681Z,19.66
2018-02-03T04:02:35.641Z,19.70
2018-02-03T04:05:01.602Z,19.75
2018-02-03T04:07:27.561Z,19.68
2018-02-03T04:09:53.553Z,19.67
2018-02-03T04:12:19.496Z,19.72
2018-02-03T04:14:45.466Z,19.66
2018-02-03T04:17:11.417Z,19.68
2018-02-03T04:19:37.364Z,19.70
2018-02-03T04:22:03.316Z,19.66
2018-02-03T04:24:29.280Z,19.66
2018-02-03T04:26:55.308Z,19.66
2018-02-03T04:29:21.254Z,19.62
2018-02-03T04:31:47.439Z,19.66
2018-02-03T04:34:13.378Z,19.64
2018-02-03T04:36:39.320Z,19.57
2018-02-03T04:39:05.269Z,19.60
2018-02-03T04:41:31.226Z,19.62
2018-02-03T04:43:57.188Z,19.67
2018-02-03T04:46:23.181Z,19.65
2018-02-03T04:48:49.133Z,19.64
2018-02-03T04:51:15.081Z,19.63
2018-02-03T04:53:41.046Z,19.58
2018-02-03T04:56:06.999Z,19.58
2018-02-03T04:58:32.972Z,19.63
2018-02-03T05:00:58.916Z,19.62
2018-02-03T05:03:24.921Z,19.66
2018-02-03T05:05:50.873Z,19.64
2018-02-03T05:08:16.814Z,19.61
2018-02-03T05:10:42.910Z,19.57
2018-02-03T05:13:08.861Z,19.58
2018-02-03T05:15:34.837Z,19.60
2018-02-03T05:18:00.801Z,19.62
2018-02-03T05:20:26.774Z,19.59
2018-02-03T05:22:52.710Z,19.58
2018-02-03T05:25:18.669Z,19.59
2018-02-03T05:27:44.637Z,19.58
2018-02-03T05:30:10.589Z,19.63
2018-02-03T05:32:36.523Z,19.57
2018-02-03T05:35:02.466Z,19.56
2018-02-03T05:37:28.409Z,19.56
2018-02-03T05:39:54.473Z,19.63
2018-02-03T05:42:20.418Z,19.58
2018-02-03T05:44:46.393Z,19.64
2018-02-03T05:47:12.343Z,19.56
2018-02-03T05:49:38.305Z,19.59
2018-02-03T05:52:04.265Z,19.60
2018-02-03T05:54:30.217Z,19.55
2018-02-03T05:56:56.181Z,19.53
2018-02-03T05:59:22.124Z,19.58
2018-02-03T06:01:48.061Z,19.59
2018-02-03T06:04:14.084Z,19.60
2018-02-03T06:06:40.014Z,19.56
2018-02-03T06:09:05.957Z,19.57
2018-02-03T06:11:31.930Z,19.54
2018-02-03T06:13:57.889Z,19.65
2018-02-03T06:16:23.893Z,19.66
2018-02-03T06:18:49.873Z,19.77
2018-02-03T06:21:15.816Z,19.85
2018-02-03T06:23:41.771Z,20.08
2018-02-03T06:26:07.732Z,20.12
2018-02-03T06:28:33.668Z,20.21
2018-02-03T06:30:59.617Z,20.11
2018-02-03T06:33:25.549Z,20.21
2018-02-03T06:35:51.509Z,20.24
2018-02-03T06:38:17.471Z,20.27
2018-02-03T06:40:43.427Z,20.18
2018-02-03T06:43:09.378Z,20.24
2018-02-03T06:45:35.319Z,20.26
2018-02-03T06:48:01.312Z,20.30
2018-02-03T06:50:27.340Z,20.25
2018-02-03T06:52:53.280Z,20.27
2018-02-03T06:55:19.253Z,20.31
2018-02-03T06:57:45.205Z,20.29
2018-02-03T07:00:11.158Z,20.24
2018-02-03T07:02:37.141Z,20.28
2018-02-03T07:05:03.209Z,20.37
2018-02-03T07:07:29.149Z,20.23
2018-02-03T07:09:55.093Z,20.23
2018-02-03T07:12:21.067Z,20.26
2018-02-03T07:14:47.009Z,20.27
2018-02-03T07:17:12.973Z,20.32
2018-02-03T07:19:38.909Z,20.34
2018-02-03T07:22:04.877Z,20.20
2018-02-03T07:24:30.831Z,20.19
2018-02-03T07:26:56.853Z,20.22
2018-02-03T07:29:22.785Z,20.29
2018-02-03T07:31:48.730Z,20.20
2018-02-03T07:34:14.765Z,20.26
2018-02-03T07:36:40.716Z,20.22
2018-02-03T07:39:06.734Z,20.14
2018-02-03T07:41:32.761Z,20.13
2018-02-03T07:43:58.728Z,20.23
2018-02-03T07:46:24.685Z,20.25
2018-02-03T07:48:50.632Z,20.19
2018-02-03T07:51:16.580Z,20.17
2018-02-03T07:53:42.518Z,20.19
2018-02-03T07:56:08.469Z,20.21
2018-02-03T07:58:34.409Z,20.13
2018-02-03T08:01:00.365Z,20.06
2018-02-03T08:03:26.320Z,20.10
2018-02-03T08:05:52.359Z,20.11
2018-02-03T08:08:18.308Z,20.05
2018-02-03T08:10:44.262Z,20.12
2018-02-03T08:13:10.229Z,20.15
2018-02-03T08:15:36.183Z,20.29
2018-02-03T08:18:02.152Z,20.30
2018-02-03T08:20:28.113Z,20.29
2018-02-03T08:22:54.068Z,20.17
2018-02-03T08:25:20.026Z,20.19
2018-02-03T08:27:45.964Z,20.20
2018-02-03T08:30:12.021Z,20.21
2018-02-03T08:32:38.003Z,20.24
2018-02-03T08:35:03.950Z,20.22
2018-02-03T08:37:29.958Z,20.19
2018-02-03T08:39:55.856Z,20.30
2018-02-03T08:42:21.796Z,20.11
2018-02-03T08:44:47.776Z,20.16
2018-02-03T08:47:13.746Z,20.10
2018-02-03T08:49:39.689Z,20.12
2018-02-03T08:52:05.734Z,20.17
2018-02-03T08:54:31.666Z,20.16
2018-02-03T08:56:57.720Z,20.18
2018-02-03T08:59:23.754Z,20.14
2018-02-03T09:01:49.778Z,20.16
2018-02-03T09:04:15.801Z,20.14
2018-02-03T09:06:41.837Z,20.18
2018-02-03T09:09:07.832Z,20.04
2018-02-03T09:11:33.910Z,20.05
2018-02-03T09:13:59.846Z,20.08
2018-02-03T09:16:25.790Z,20.05
2018-02-03T09:18:51.740Z,20.03
2018-02-03T09:21:17.702Z,20.01
2018-02-03T09:23:43.653Z,20.01
2018-02-03T09:26:09.605Z,20.08
2018-02-03T09:28:35.565Z,20.04
2018-02-03T09:31:01.618Z,20.05
2018-02-03T09:33:27.584Z,20.04
2018-02-03T09:35:53.541Z,20.08
2018-02-03T09:38:19.584Z,20.22
2018-02-03T09:40:45.633Z,20.28
2018-02-03T09:43:11.585Z,20.28
2018-02-03T09:45:37.541Z,20.31
2018-02-03T09:48:03.481Z,20.21
2018-02-03T09:50:29.452Z,20.20
2018-02-03T09:52:55.405Z,20.18
2018-02-03T09:55:21.421Z,20.18
2018-02-03T09:57:47.362Z,20.21
2018-02-03T10:00:13.312Z,20.18
2018-02-03T10:02:39.257Z,20.15
2018-02-03T10:05:05.218Z,20.18
2018-02-03T10:07:31.153Z,20.18
2018-02-03T10:09:57.119Z,20.16
2018-02-03T10:12:23.065Z,20.31
2018-02-03T10:14:49.016Z,20.21
2018-02-03T10:17:15.049Z,20.28
2018-02-03T10:19:41.849Z,20.20
2018-02-03T10:22:07.830Z,20.10
2018-02-03T10:24:34.521Z,20.11
2018-02-03T10:27:00.548Z,20.13
2018-02-03T10:29:27.286Z,20.17
2018-02-03T10:31:53.501Z,20.19
2018-02-03T10:34:19.494Z,20.13
2018-02-03T10:36:45.575Z,20.18
2018-02-03T10:39:11.686Z,20.20
2018-02-03T10:41:38.619Z,20.15
2018-02-03T10:44:04.699Z,20.17
2018-02-03T10:46:30.775Z,20.21
2018-02-03T10:48:56.744Z,20.16
2018-02-03T10:51:22.729Z,20.21
2018-02-03T10:53:48.825Z,20.20
2018-02-03T10:56:15.765Z,20.20
2018-02-03T10:58:41.726Z,20.24
2018-02-03T11:01:08.008Z,20.23
2018-02-03T11:03:34.037Z,20.16
2018-02-03T11:06:00.097Z,20.21
2018-02-03T11:08:26.094Z,20.15
2018-02-03T11:10:52.088Z,20.21
2018-02-03T11:13:18.049Z,20.29
2018-02-03T11:15:43.998Z,20.27
2018-02-03T11:18:09.929Z,20.21
2018-02-03T11:20:35.876Z,20.23
2018-02-03T11:23:01.831Z,20.26
2018-02-03T11:25:27.751Z,20.31
2018-02-03T11:27:53.717Z,20.25
2018-02-03T11:30:19.657Z,20.32
2018-02-03T11:32:45.630Z,20.64
2018-02-03T11:35:11.582Z,20.78
2018-02-03T11:37:37.582Z,20.92
2018-02-03T11:40:03.525Z,20.88
2018-02-03T11:42:29.482Z,20.84
2018-02-03T11:44:55.446Z,20.89
2018-02-03T11:47:21.403Z,20.78
2018-02-03T11:49:47.357Z,20.84
2018-02-03T11:52:13.336Z,20.84
2018-02-03T11:54:39.445Z,20.85
2018-02-03T11:57:05.409Z,20.75
2018-02-03T11:59:31.360Z,20.75
2018-02-03T12:01:57.452Z,20.86
2018-02-03T12:04:23.438Z,20.85
2018-02-03T12:06:49.412Z,20.81
2018-02-03T12:09:15.377Z,20.86
2018-02-03T12:11:41.329Z,20.72
2018-02-03T12:14:07.401Z,20.73
2018-02-03T12:16:33.351Z,20.72
2018-02-03T12:18:59.385Z,20.66
2018-02-03T12:21:25.368Z,20.65
2018-02-03T12:23:51.333Z,20.70
2018-02-03T12:26:17.426Z,20.68
2018-02-03T12:28:43.393Z,20.72
2018-02-03T12:31:09.366Z,20.69
2018-02-03T12:33:35.300Z,20.59
2018-02-03T12:36:01.245Z,20.55
2018-02-03T12:38:27.196Z,20.58
2018-02-03T12:40:53.162Z,20.70
2018-02-03T12:43:19.126Z,20.66
2018-02-03T12:45:45.098Z,20.72
2018-02-03T12:48:11.052Z,20.61
2018-02-03T12:50:37.025Z,20.70
2018-02-03T12:53:02.985Z,20.63
2018-02-03T12:55:29.195Z,20.74
2018-02-03T12:57:55.161Z,20.70
2018-02-03T13:00:21.108Z,20.62
2018-02-03T13:02:47.202Z,20.70
2018-02-03T13:05:13.230Z,20.75
2018-02-03T13:07:39.189Z,20.84
2018-02-03T13:10:05.152Z,20.92
2018-02-03T13:12:31.102Z,20.72
2018-02-03T13:14:57.053Z,20.77
2018-02-03T13:17:23.008Z,20.84
2018-02-03T13:19:48.972Z,20.80
2018-02-03T13:22:14.924Z,20.79
2018-02-03T13:24:40.899Z,20.74
2018-02-03T13:27:06.873Z,20.80
2018-02-03T13:29:32.806Z,20.84
2018-02-03T13:31:58.776Z,20.81
2018-02-03T13:34:24.723Z,20.78
2018-02-03T13:36:50.669Z,20.72
2018-02-03T13:39:16.630Z,20.78
2018-02-03T13:41:42.595Z,20.83
2018-02-03T13:44:08.579Z,20.75
2018-02-03T13:46:34.561Z,20.79
2018-02-03T13:49:00.592Z,20.69
2018-02-03T13:51:26.585Z,20.74
2018-02-03T13:53:52.493Z,20.71
2018-02-03T13:56:18.448Z,20.66
2018-02-03T13:58:44.401Z,20.73
2018-02-03T14:01:10.369Z,20.61
2018-02-03T14:03:36.424Z,20.59
2018-02-03T14:06:02.390Z,20.59
2018-02-03T14:08:28.344Z,20.52
2018-02-03T14:10:54.318Z,20.57
2018-02-03T14:13:20.283Z,20.52
2018-02-03T14:15:46.241Z,20.48
2018-02-03T14:18:12.217Z,20.48
2018-02-03T14:20:38.188Z,20.45
2018-02-03T14:23:04.124Z,20.39
2018-02-03T14:25:30.097Z,20.44
2018-02-03T14:27:56.151Z,20.45
2018-02-03T14:30:22.085Z,20.54
2018-02-03T14:32:48.028Z,20.61
2018-02-03T14:35:13.981Z,20.42
2018-02-03T14:37:39.963Z,20.44
2018-02-03T14:40:05.914Z,20.47
2018-02-03T14:42:31.897Z,20.40
2018-02-03T14:44:57.880Z,20.41
2018-02-03T14:47:23.842Z,20.40
2018-02-03T14:49:49.784Z,20.46
2018-02-03T14:52:15.745Z,20.43
2018-02-03T14:54:41.701Z,20.40
2018-02-03T14:57:07.649Z,20.40
2018-02-03T14:59:33.629Z,20.41
2018-02-03T15:01:59.589Z,20.39
2018-02-03T15:04:25.533Z,20.39
2018-02-03T15:06:51.505Z,20.44
2018-02-03T15:09:17.457Z,20.38
2018-02-03T15:11:43.435Z,20.34
2018-02-03T15:14:09.372Z,20.33
2018-02-03T15:16:35.346Z,20.34
2018-02-03T15:19:01.337Z,20.34
2018-02-03T15:21:27.326Z,20.35
2018-02-03T15:23:53.329Z,20.33
2018-02-03T15:26:19.274Z,20.34
2018-02-03T15:28:45.222Z,20.31
2018-02-03T15:31:11.298Z,20.25
2018-02-03T15:33:37.244Z,20.32
2018-02-03T15:36:03.210Z,20.32
2018-02-03T15:38:29.157Z,20.32
2018-02-03T15:40:55.129Z,20.32
2018-02-03T15:43:21.095Z,20.35
2018-02-03T15:45:47.044Z,20.35
2018-02-03T15:48:13.010Z,20.42
2018-02-03T15:50:38.993Z,20.44
2018-02-03T15:53:04.996Z,20.32
2018-02-03T15:55:30.929Z,20.37
2018-02-03T15:57:56.878Z,20.28
2018-02-03T16:00:22.854Z,20.25
2018-02-03T16:02:48.811Z,20.30
2018-02-03T16:05:14.781Z,20.37
2018-02-03T16:07:40.886Z,20.28
2018-02-03T16:10:06.836Z,20.35
2018-02-03T16:12:32.792Z,20.32
2018-02-03T16:14:58.837Z,20.30
2018-02-03T16:17:24.781Z,20.30
2018-02-03T16:19:50.742Z,20.25
2018-02-03T16:22:16.690Z,20.27
2018-02-03T16:24:42.629Z,20.22
2018-02-03T16:27:08.599Z,20.24
2018-02-03T16:29:34.629Z,20.24
2018-02-03T16:32:00.594Z,20.28
2018-02-03T16:34:26.540Z,20.27
2018-02-03T16:36:52.586Z,20.21
2018-02-03T16:39:18.542Z,20.26
2018-02-03T16:41:44.489Z,20.31
2018-02-03T16:44:10.453Z,20.30
2018-02-03T16:46:36.450Z,20.31
2018-02-03T16:49:02.402Z,20.31
2018-02-03T16:51:28.361Z,20.31
2018-02-03T16:53:54.299Z,20.32
2018-02-03T16:56:20.269Z,20.31
2018-02-03T16:58:46.218Z,20.40
2018-02-03T17:01:12.269Z,20.28
2018-02-03T17:03:38.215Z,20.32
2018-02-03T17:06:04.176Z,20.36
2018-02-03T17:08:30.141Z,20.32
2018-02-03T17:10:56.085Z,20.30
2018-02-03T17:13:22.059Z,20.30
2018-02-03T17:15:48.021Z,20.27
2018-02-03T17:18:13.959Z,20.29
2018-02-03T17:20:39.929Z,20.28
2018-02-03T17:23:05.905Z,20.29
2018-02-03T17:25:31.862Z,20.22
2018-02-03T17:27:57.814Z,20.29
2018-02-03T17:30:23.767Z,20.27
2018-02-03T17:32:49.724Z,20.31
2018-02-03T17:35:15.676Z,20.28
2018-02-03T17:37:41.659Z,20.23
2018-02-03T17:40:07.622Z,20.24
2018-02-03T17:42:33.569Z,20.26
2018-02-03T17:44:59.514Z,20.29
2018-02-03T17:47:25.530Z,20.34
2018-02-03T17:49:51.519Z,20.42
2018-02-03T17:52:17.573Z,20.33
2018-02-03T17:54:43.538Z,20.24
2018-02-03T17:57:09.605Z,20.25
2018-02-03T17:59:35.557Z,20.21
2018-02-03T18:02:01.530Z,20.23
2018-02-03T18:04:27.669Z,20.22
2018-02-03T18:06:53.637Z,20.35
2018-02-03T18:09:19.589Z,20.27
2018-02-03T18:11:45.544Z,20.23
2018-02-03T18:14:11.510Z,20.19
2018-02-03T18:16:37.554Z,20.18
2018-02-03T18:19:03.508Z,20.12
2018-02-03T18:21:29.509Z,20.19
2018-02-03T18:23:55.444Z,20.26
2018-02-03T18:26:21.420Z,20.25
2018-02-03T18:28:47.369Z,20.19
2018-02-03T18:31:13.322Z,20.21
2018-02-03T18:33:39.328Z,20.22
2018-02-03T18:36:05.285Z,20.32
2018-02-03T18:38:31.263Z,20.29
2018-02-03T18:40:57.238Z,20.30
2018-02-03T18:43:23.213Z,20.27
2018-02-03T18:45:49.149Z,20.28
2018-02-03T18:48:15.202Z,20.30
2018-02-03T18:50:41.150Z,20.29
2018-02-03T18:53:07.121Z,20.23
2018-02-03T18:55:33.089Z,20.23
2018-02-03T18:57:59.053Z,20.29
2018-02-03T19:00:25.022Z,20.09
2018-02-03T19:02:50.982Z,20.11
2018-02-03T19:05:17.140Z,20.08
2018-02-03T19:07:43.081Z,20.12
2018-02-03T19:10:09.061Z,20.18
2018-02-03T19:12:35.022Z,20.19
2018-02-03T19:15:01.167Z,20.16
2018-02-03T19:17:27.148Z,20.18
2018-02-03T19:19:53.118Z,20.17
2018-02-03T19:22:19.060Z,20.20
2018-02-03T19:24:45.053Z,20.25
2018-02-03T19:27:11.017Z,20.27
2018-02-03T19:29:37.053Z,20.26
2018-02-03T19:32:03.153Z,20.26
2018-02-03T19:34:29.101Z,20.28
2018-02-03T19:36:55.077Z,20.29
2018-02-03T19:39:21.034Z,20.28
2018-02-03T19:41:47.011Z,20.26
2018-02-03T19:44:12.956Z,20.26
2018-02-03T19:46:38.905Z,20.29
2018-02-03T19:49:04.849Z,20.21
2018-02-03T19:51:30.799Z,20.21
2018-02-03T19:53:56.752Z,20.24
2018-02-03T19:56:22.702Z,20.22
2018-02-03T19:58:48.698Z,20.28
2018-02-03T20:01:14.730Z,20.27
2018-02-03T20:03:40.721Z,20.28
2018-02-03T20:06:06.673Z,20.27
2018-02-03T20:08:32.712Z,20.25
2018-02-03T20:10:58.657Z,20.27
2018-02-03T20:13:24.609Z,20.35
2018-02-03T20:15:50.569Z,20.33
2018-02-03T20:18:16.534Z,20.30
2018-02-03T20:20:42.498Z,20.32
2018-02-03T20:23:08.440Z,20.32
2018-02-03T20:25:34.376Z,20.31
2018-02-03T20:28:00.336Z,20.33
2018-02-03T20:30:26.301Z,20.26
2018-02-03T20:32:52.250Z,20.28
2018-02-03T20:35:18.194Z,20.22
2018-02-03T20:37:44.152Z,20.28
2018-02-03T20:40:10.101Z,20.27
2018-02-03T20:42:36.357Z,20.29
2018-02-03T20:45:02.322Z,20.30
2018-02-03T20:47:28.281Z,20.30
2018-02-03T20:49:54.597Z,20.27
2018-02-03T20:52:20.539Z,20.24
2018-02-03T20:54:46.498Z,20.27
2018-02-03T20:57:12.455Z,20.30
2018-02-03T20:59:38.393Z,20.25
2018-02-03T21:02:04.349Z,20.26
2018-02-03T21:04:30.362Z,20.30
2018-02-03T21:06:56.404Z,20.34
2018-02-03T21:09:22.362Z,20.33
2018-02-03T21:11:48.337Z,20.30
2018-02-03T21:14:14.293Z,20.31
2018-02-03T21:16:40.293Z,20.29
2018-02-03T21:19:06.240Z,20.31
2018-02-03T21:21:32.248Z,20.28
2018-02-03T21:23:58.192Z,20.28
2018-02-03T21:26:24.176Z,20.29
2018-02-03T21:28:50.134Z,20.25
2018-02-03T21:31:16.093Z,20.32
2018-02-03T21:33:42.049Z,20.28
2018-02-03T21:36:08.038Z,20.26
2018-02-03T21:38:34.009Z,20.32
2018-02-03T21:40:59.966Z,20.27
2018-02-03T21:43:25.977Z,20.28
2018-02-03T21:45:51.927Z,20.23
2018-02-03T21:48:17.962Z,20.27
2018-02-03T21:50:43.910Z,20.33
2018-02-03T21:53:09.922Z,20.32
2018-02-03T21:55:35.885Z,20.32
2018-02-03T21:58:01.852Z,20.30
2018-02-03T22:00:27.840Z,20.32
2018-02-03T22:02:53.776Z,20.33
2018-02-03T22:05:19.770Z,20.29
2018-02-03T22:07:45.733Z,20.26
2018-02-03T22:10:11.729Z,20.27
2018-02-03T22:12:37.671Z,20.26
2018-02-03T22:15:03.614Z,20.28
2018-02-03T22:17:29.585Z,20.25
2018-02-03T22:19:55.552Z,20.22
2018-02-03T22:22:21.505Z,20.31
2018-02-03T22:24:47.438Z,20.28
2018-02-03T22:27:13.417Z,20.29
2018-02-03T22:29:39.436Z,20.31
2018-02-03T22:32:05.384Z,20.26
2018-02-03T22:34:31.336Z,20.27
2018-02-03T22:36:57.275Z,20.28
2018-02-03T22:39:23.250Z,20.30
2018-02-03T22:41:49.209Z,20.35
2018-02-03T22:44:15.154Z,20.39
2018-02-03T22:46:41.109Z,20.33
2018-02-03T22:49:07.053Z,20.28
2018-02-03T22:51:33.000Z,20.30
2018-02-03T22:53:58.949Z,20.22
2018-02-03T22:56:24.921Z,20.30
2018-02-03T22:58:50.880Z,20.25
2018-02-03T23:01:16.832Z,20.17
2018-02-03T23:03:42.819Z,20.20
2018-02-03T23:06:08.728Z,20.22
2018-02-03T23:08:34.685Z,20.25
2018-02-03T23:11:00.655Z,20.20
2018-02-03T23:13:26.642Z,20.17
2018-02-03T23:15:52.578Z,20.20
2018-02-03T23:18:18.558Z,20.24
2018-02-03T23:20:44.505Z,20.17
2018-02-03T23:23:10.437Z,20.13
2018-02-03T23:25:36.398Z,20.12
2018-02-03T23:28:02.349Z,20.16
2018-02-03T23:30:28.403Z,20.15
2018-02-03T23:32:54.368Z,20.17
2018-02-03T23:35:20.330Z,20.11
2018-02-03T23:37:46.286Z,20.12
2018-02-03T23:40:12.234Z,20.15
2018-02-03T23:42:38.188Z,20.08
2018-02-03T23:45:04.170Z,20.06
2018-02-03T23:47:30.166Z,20.11
2018-02-03T23:49:56.113Z,20.07
2018-02-03T23:52:22.069Z,20.07
2018-02-03T23:54:48.017Z,20.04
2018-02-03T23:57:13.950Z,20.05
2018-02-03T23:59:39.934Z,20.11
